sensor_id;sensor_type;location;lat;lon;timestamp;P1;durP1;ratioP1;P2;durP2;ratioP2
5937;SDS011;2994;51.220;4.412;2022-07-11T00:02:02;6.83;;;5.90;;
5937;SDS011;2994;51.220;4.412;2022-07-11T00:04:29;7.83;;;5.63;;
5937;SDS011;2994;51.220;4.412;2022-07-11T00:06:55;8.27;;;7.27;;
5937;SDS011;2994;51.220;4.412;2022-07-11T00:09:21;6.27;;;5.67;;
5937;SDS011;2994;51.220;4.412;2022-07-11T00:11:46;5.70;;;5.17;;
5937;SDS011;2994;51.220;4.412;2022-07-11T00:14:13;6.60;;;5.93;;
5937;SDS011;2994;51.220;4.412;2022-07-11T00:16:39;7.20;;;6.60;;
5937;SDS011;2994;51.220;4.412;2022-07-11T00:19:04;7.87;;;7.07;;
5937;SDS011;2994;51.220;4.412;2022-07-11T00:21:31;7.63;;;6.43;;
5937;SDS011;2994;51.220;4.412;2022-07-11T00:23:56;9.30;;;6.87;;
5937;SDS011;2994;51.220;4.412;2022-07-11T00:26:22;7.70;;;6.80;;
5937;SDS011;2994;51.220;4.412;2022-07-11T00:28:47;8.40;;;6.07;;
5937;SDS011;2994;51.220;4.412;2022-07-11T00:31:13;9.47;;;7.90;;
5937;SDS011;2994;51.220;4.412;2022-07-11T00:33:38;6.93;;;6.27;;
5937;SDS011;2994;51.220;4.412;2022-07-11T00:36:04;7.33;;;6.73;;
5937;SDS011;2994;51.220;4.412;2022-07-11T00:38:30;8.47;;;7.67;;
5937;SDS011;2994;51.220;4.412;2022-07-11T00:40:55;10.00;;;6.80;;
5937;SDS011;2994;51.220;4.412;2022-07-11T00:43:29;10.23;;;6.87;;
5937;SDS011;2994;51.220;4.412;2022-07-11T00:45:58;8.43;;;7.43;;
5937;SDS011;2994;51.220;4.412;2022-07-11T00:48:24;8.63;;;7.83;;
5937;SDS011;2994;51.220;4.412;2022-07-11T00:50:50;12.30;;;8.00;;
5937;SDS011;2994;51.220;4.412;2022-07-11T00:53:15;9.23;;;8.33;;
5937;SDS011;2994;51.220;4.412;2022-07-11T00:55:42;8.43;;;7.60;;
5937;SDS011;2994;51.220;4.412;2022-07-11T00:58:07;9.43;;;8.43;;
5937;SDS011;2994;51.220;4.412;2022-07-11T01:00:33;9.00;;;7.90;;
5937;SDS011;2994;51.220;4.412;2022-07-11T01:02:59;10.37;;;8.87;;
5937;SDS011;2994;51.220;4.412;2022-07-11T01:05:24;16.40;;;10.10;;
5937;SDS011;2994;51.220;4.412;2022-07-11T01:07:50;8.57;;;7.77;;
5937;SDS011;2994;51.220;4.412;2022-07-11T01:10:15;11.27;;;10.17;;
5937;SDS011;2994;51.220;4.412;2022-07-11T01:12:41;9.60;;;8.70;;
5937;SDS011;2994;51.220;4.412;2022-07-11T01:15:06;11.50;;;9.47;;
5937;SDS011;2994;51.220;4.412;2022-07-11T01:17:35;10.50;;;9.43;;
5937;SDS011;2994;51.220;4.412;2022-07-11T01:20:00;11.83;;;10.00;;
5937;SDS011;2994;51.220;4.412;2022-07-11T01:22:26;13.13;;;9.40;;
5937;SDS011;2994;51.220;4.412;2022-07-11T01:24:53;11.70;;;10.60;;
5937;SDS011;2994;51.220;4.412;2022-07-11T01:27:19;12.97;;;10.07;;
5937;SDS011;2994;51.220;4.412;2022-07-11T01:29:44;11.77;;;10.20;;
5937;SDS011;2994;51.220;4.412;2022-07-11T01:32:10;11.90;;;9.67;;
5937;SDS011;2994;51.220;4.412;2022-07-11T01:34:35;12.70;;;10.40;;
5937;SDS011;2994;51.220;4.412;2022-07-11T01:37:01;10.60;;;8.60;;
5937;SDS011;2994;51.220;4.412;2022-07-11T01:39:27;14.13;;;11.00;;
5937;SDS011;2994;51.220;4.412;2022-07-11T01:41:58;12.37;;;11.17;;
5937;SDS011;2994;51.220;4.412;2022-07-11T01:44:24;13.00;;;10.87;;
5937;SDS011;2994;51.220;4.412;2022-07-11T01:46:50;12.17;;;11.07;;
5937;SDS011;2994;51.220;4.412;2022-07-11T01:49:16;12.93;;;11.17;;
5937;SDS011;2994;51.220;4.412;2022-07-11T01:51:42;13.33;;;11.67;;
5937;SDS011;2994;51.220;4.412;2022-07-11T01:54:07;13.50;;;10.00;;
5937;SDS011;2994;51.220;4.412;2022-07-11T01:56:33;16.43;;;11.03;;
5937;SDS011;2994;51.220;4.412;2022-07-11T01:58:58;11.90;;;10.67;;
5937;SDS011;2994;51.220;4.412;2022-07-11T02:01:24;13.43;;;11.13;;
5937;SDS011;2994;51.220;4.412;2022-07-11T02:03:50;13.37;;;11.53;;
5937;SDS011;2994;51.220;4.412;2022-07-11T02:06:16;12.10;;;10.80;;
5937;SDS011;2994;51.220;4.412;2022-07-11T02:08:41;13.03;;;11.40;;
5937;SDS011;2994;51.220;4.412;2022-07-11T02:11:07;13.03;;;11.70;;
5937;SDS011;2994;51.220;4.412;2022-07-11T02:13:32;13.47;;;11.63;;
5937;SDS011;2994;51.220;4.412;2022-07-11T02:15:58;14.30;;;12.80;;
5937;SDS011;2994;51.220;4.412;2022-07-11T02:18:23;13.47;;;11.90;;
5937;SDS011;2994;51.220;4.412;2022-07-11T02:20:49;16.07;;;11.80;;
5937;SDS011;2994;51.220;4.412;2022-07-11T02:23:15;15.80;;;13.70;;
5937;SDS011;2994;51.220;4.412;2022-07-11T02:25:41;16.20;;;13.47;;
5937;SDS011;2994;51.220;4.412;2022-07-11T02:28:07;13.30;;;11.83;;
5937;SDS011;2994;51.220;4.412;2022-07-11T02:30:37;15.80;;;14.20;;
5937;SDS011;2994;51.220;4.412;2022-07-11T02:33:05;16.90;;;13.77;;
5937;SDS011;2994;51.220;4.412;2022-07-11T02:35:38;13.77;;;12.00;;
5937;SDS011;2994;51.220;4.412;2022-07-11T02:38:04;17.07;;;13.87;;
5937;SDS011;2994;51.220;4.412;2022-07-11T02:40:29;14.53;;;12.23;;
5937;SDS011;2994;51.220;4.412;2022-07-11T02:42:55;15.27;;;13.53;;
5937;SDS011;2994;51.220;4.412;2022-07-11T02:45:21;20.70;;;14.57;;
5937;SDS011;2994;51.220;4.412;2022-07-11T02:47:46;15.80;;;14.20;;
5937;SDS011;2994;51.220;4.412;2022-07-11T02:50:12;16.80;;;14.33;;
5937;SDS011;2994;51.220;4.412;2022-07-11T02:52:39;15.83;;;14.20;;
5937;SDS011;2994;51.220;4.412;2022-07-11T02:55:06;15.00;;;12.97;;
5937;SDS011;2994;51.220;4.412;2022-07-11T02:57:34;13.80;;;12.30;;
5937;SDS011;2994;51.220;4.412;2022-07-11T03:00:00;15.23;;;13.60;;
5937;SDS011;2994;51.220;4.412;2022-07-11T03:02:27;16.00;;;14.33;;
5937;SDS011;2994;51.220;4.412;2022-07-11T03:04:52;16.93;;;13.47;;
5937;SDS011;2994;51.220;4.412;2022-07-11T03:07:18;15.83;;;13.63;;
5937;SDS011;2994;51.220;4.412;2022-07-11T03:09:43;15.67;;;12.97;;
5937;SDS011;2994;51.220;4.412;2022-07-11T03:12:09;16.70;;;13.40;;
5937;SDS011;2994;51.220;4.412;2022-07-11T03:14:34;15.00;;;12.47;;
5937;SDS011;2994;51.220;4.412;2022-07-11T03:17:00;17.17;;;13.60;;
5937;SDS011;2994;51.220;4.412;2022-07-11T03:19:25;17.50;;;12.73;;
5937;SDS011;2994;51.220;4.412;2022-07-11T03:21:51;15.20;;;13.10;;
5937;SDS011;2994;51.220;4.412;2022-07-11T03:24:17;17.10;;;13.40;;
5937;SDS011;2994;51.220;4.412;2022-07-11T03:26:42;14.67;;;12.27;;
5937;SDS011;2994;51.220;4.412;2022-07-11T03:29:08;13.50;;;11.67;;
5937;SDS011;2994;51.220;4.412;2022-07-11T03:31:34;16.97;;;13.40;;
5937;SDS011;2994;51.220;4.412;2022-07-11T03:34:00;17.90;;;10.97;;
5937;SDS011;2994;51.220;4.412;2022-07-11T03:36:25;15.73;;;11.37;;
5937;SDS011;2994;51.220;4.412;2022-07-11T03:38:51;15.93;;;11.60;;
5937;SDS011;2994;51.220;4.412;2022-07-11T03:41:16;19.20;;;12.10;;
5937;SDS011;2994;51.220;4.412;2022-07-11T03:43:42;15.03;;;13.03;;
5937;SDS011;2994;51.220;4.412;2022-07-11T03:46:07;13.87;;;10.60;;
5937;SDS011;2994;51.220;4.412;2022-07-11T03:48:33;14.87;;;12.47;;
5937;SDS011;2994;51.220;4.412;2022-07-11T03:50:59;15.13;;;12.50;;
5937;SDS011;2994;51.220;4.412;2022-07-11T03:53:24;16.83;;;12.10;;
5937;SDS011;2994;51.220;4.412;2022-07-11T03:55:50;15.63;;;12.40;;
5937;SDS011;2994;51.220;4.412;2022-07-11T03:58:15;15.10;;;12.30;;
5937;SDS011;2994;51.220;4.412;2022-07-11T04:00:41;12.87;;;11.07;;
5937;SDS011;2994;51.220;4.412;2022-07-11T04:03:06;14.00;;;11.60;;
5937;SDS011;2994;51.220;4.412;2022-07-11T04:05:31;14.10;;;11.90;;
5937;SDS011;2994;51.220;4.412;2022-07-11T04:07:57;13.93;;;11.10;;
5937;SDS011;2994;51.220;4.412;2022-07-11T04:10:23;14.70;;;12.07;;
5937;SDS011;2994;51.220;4.412;2022-07-11T04:12:49;14.80;;;11.00;;
5937;SDS011;2994;51.220;4.412;2022-07-11T04:15:14;16.37;;;12.30;;
5937;SDS011;2994;51.220;4.412;2022-07-11T04:17:40;15.30;;;12.07;;
5937;SDS011;2994;51.220;4.412;2022-07-11T04:20:05;15.90;;;11.87;;
5937;SDS011;2994;51.220;4.412;2022-07-11T04:22:31;13.60;;;11.37;;
5937;SDS011;2994;51.220;4.412;2022-07-11T04:24:56;13.00;;;11.50;;
5937;SDS011;2994;51.220;4.412;2022-07-11T04:27:22;17.50;;;13.40;;
5937;SDS011;2994;51.220;4.412;2022-07-11T04:29:49;14.63;;;13.10;;
5937;SDS011;2994;51.220;4.412;2022-07-11T04:32:15;21.43;;;12.60;;
5937;SDS011;2994;51.220;4.412;2022-07-11T04:34:40;14.93;;;12.50;;
5937;SDS011;2994;51.220;4.412;2022-07-11T04:37:06;15.10;;;12.10;;
5937;SDS011;2994;51.220;4.412;2022-07-11T04:39:31;15.33;;;11.60;;
5937;SDS011;2994;51.220;4.412;2022-07-11T04:41:59;14.33;;;11.57;;
5937;SDS011;2994;51.220;4.412;2022-07-11T04:44:26;15.20;;;9.97;;
5937;SDS011;2994;51.220;4.412;2022-07-11T04:46:52;15.20;;;11.00;;
5937;SDS011;2994;51.220;4.412;2022-07-11T04:49:17;15.30;;;11.83;;
5937;SDS011;2994;51.220;4.412;2022-07-11T04:51:43;14.40;;;10.93;;
5937;SDS011;2994;51.220;4.412;2022-07-11T04:54:09;16.50;;;10.93;;
5937;SDS011;2994;51.220;4.412;2022-07-11T04:56:34;14.47;;;10.93;;
5937;SDS011;2994;51.220;4.412;2022-07-11T04:59:00;12.23;;;10.60;;
5937;SDS011;2994;51.220;4.412;2022-07-11T05:01:26;13.80;;;11.37;;
5937;SDS011;2994;51.220;4.412;2022-07-11T05:03:54;13.33;;;9.87;;
5937;SDS011;2994;51.220;4.412;2022-07-11T05:06:19;15.23;;;9.57;;
5937;SDS011;2994;51.220;4.412;2022-07-11T05:08:45;12.80;;;9.33;;
5937;SDS011;2994;51.220;4.412;2022-07-11T05:11:10;9.37;;;7.67;;
5937;SDS011;2994;51.220;4.412;2022-07-11T05:13:36;9.70;;;8.70;;
5937;SDS011;2994;51.220;4.412;2022-07-11T05:16:02;11.00;;;8.87;;
5937;SDS011;2994;51.220;4.412;2022-07-11T05:18:28;9.57;;;7.77;;
5937;SDS011;2994;51.220;4.412;2022-07-11T05:20:54;11.07;;;8.30;;
5937;SDS011;2994;51.220;4.412;2022-07-11T05:23:20;10.17;;;9.03;;
5937;SDS011;2994;51.220;4.412;2022-07-11T05:25:45;10.70;;;8.43;;
5937;SDS011;2994;51.220;4.412;2022-07-11T05:28:11;10.67;;;7.97;;
5937;SDS011;2994;51.220;4.412;2022-07-11T05:30:36;11.10;;;8.77;;
5937;SDS011;2994;51.220;4.412;2022-07-11T05:33:01;12.23;;;9.87;;
5937;SDS011;2994;51.220;4.412;2022-07-11T05:35:27;11.90;;;10.37;;
5937;SDS011;2994;51.220;4.412;2022-07-11T05:37:53;12.50;;;10.40;;
5937;SDS011;2994;51.220;4.412;2022-07-11T05:40:18;12.17;;;10.80;;
5937;SDS011;2994;51.220;4.412;2022-07-11T05:42:44;13.60;;;10.90;;
5937;SDS011;2994;51.220;4.412;2022-07-11T05:45:09;12.60;;;10.00;;
5937;SDS011;2994;51.220;4.412;2022-07-11T05:47:35;13.47;;;12.00;;
5937;SDS011;2994;51.220;4.412;2022-07-11T05:50:00;15.00;;;12.57;;
5937;SDS011;2994;51.220;4.412;2022-07-11T05:52:26;12.13;;;10.83;;
5937;SDS011;2994;51.220;4.412;2022-07-11T05:54:51;15.30;;;12.97;;
5937;SDS011;2994;51.220;4.412;2022-07-11T05:57:17;14.20;;;10.83;;
5937;SDS011;2994;51.220;4.412;2022-07-11T05:59:42;12.70;;;11.47;;
5937;SDS011;2994;51.220;4.412;2022-07-11T06:02:09;13.53;;;12.13;;
5937;SDS011;2994;51.220;4.412;2022-07-11T06:04:35;12.23;;;10.93;;
5937;SDS011;2994;51.220;4.412;2022-07-11T06:07:01;12.27;;;10.97;;
5937;SDS011;2994;51.220;4.412;2022-07-11T06:09:27;12.73;;;11.40;;
5937;SDS011;2994;51.220;4.412;2022-07-11T06:11:52;13.20;;;10.60;;
5937;SDS011;2994;51.220;4.412;2022-07-11T06:14:18;11.50;;;9.90;;
5937;SDS011;2994;51.220;4.412;2022-07-11T06:16:43;9.07;;;8.20;;
5937;SDS011;2994;51.220;4.412;2022-07-11T06:19:09;10.23;;;9.17;;
5937;SDS011;2994;51.220;4.412;2022-07-11T06:21:34;9.73;;;8.90;;
5937;SDS011;2994;51.220;4.412;2022-07-11T06:24:00;9.90;;;8.90;;
5937;SDS011;2994;51.220;4.412;2022-07-11T06:26:26;9.13;;;8.33;;
5937;SDS011;2994;51.220;4.412;2022-07-11T06:28:51;8.80;;;7.63;;
5937;SDS011;2994;51.220;4.412;2022-07-11T06:31:17;9.97;;;8.20;;
5937;SDS011;2994;51.220;4.412;2022-07-11T06:33:42;9.70;;;8.70;;
5937;SDS011;2994;51.220;4.412;2022-07-11T06:36:08;7.93;;;7.23;;
5937;SDS011;2994;51.220;4.412;2022-07-11T06:38:34;9.17;;;8.27;;
5937;SDS011;2994;51.220;4.412;2022-07-11T06:40:59;9.40;;;8.40;;
5937;SDS011;2994;51.220;4.412;2022-07-11T06:43:25;10.20;;;9.30;;
5937;SDS011;2994;51.220;4.412;2022-07-11T06:45:51;10.10;;;9.10;;
5937;SDS011;2994;51.220;4.412;2022-07-11T06:48:16;10.60;;;9.60;;
5937;SDS011;2994;51.220;4.412;2022-07-11T06:50:43;11.60;;;10.23;;
5937;SDS011;2994;51.220;4.412;2022-07-11T06:53:08;10.53;;;9.43;;
5937;SDS011;2994;51.220;4.412;2022-07-11T06:55:34;11.27;;;9.30;;
5937;SDS011;2994;51.220;4.412;2022-07-11T06:58:00;10.70;;;9.60;;
5937;SDS011;2994;51.220;4.412;2022-07-11T07:00:26;11.93;;;10.63;;
5937;SDS011;2994;51.220;4.412;2022-07-11T07:02:53;11.37;;;10.23;;
5937;SDS011;2994;51.220;4.412;2022-07-11T07:05:22;9.90;;;8.90;;
5937;SDS011;2994;51.220;4.412;2022-07-11T07:07:48;10.77;;;9.67;;
5937;SDS011;2994;51.220;4.412;2022-07-11T07:10:14;11.47;;;10.37;;
5937;SDS011;2994;51.220;4.412;2022-07-11T07:12:40;12.17;;;9.03;;
5937;SDS011;2994;51.220;4.412;2022-07-11T07:15:05;11.30;;;9.53;;
5937;SDS011;2994;51.220;4.412;2022-07-11T07:17:31;8.30;;;7.50;;
5937;SDS011;2994;51.220;4.412;2022-07-11T07:19:57;8.30;;;7.50;;
5937;SDS011;2994;51.220;4.412;2022-07-11T07:22:22;8.60;;;7.80;;
5937;SDS011;2994;51.220;4.412;2022-07-11T07:24:48;7.53;;;6.83;;
5937;SDS011;2994;51.220;4.412;2022-07-11T07:27:14;6.80;;;5.93;;
5937;SDS011;2994;51.220;4.412;2022-07-11T07:29:39;6.77;;;5.30;;
5937;SDS011;2994;51.220;4.412;2022-07-11T07:32:05;5.50;;;5.00;;
5937;SDS011;2994;51.220;4.412;2022-07-11T07:34:31;4.33;;;3.93;;
5937;SDS011;2994;51.220;4.412;2022-07-11T07:36:57;6.70;;;4.23;;
5937;SDS011;2994;51.220;4.412;2022-07-11T07:39:23;4.53;;;4.10;;
5937;SDS011;2994;51.220;4.412;2022-07-11T07:41:49;4.70;;;4.30;;
5937;SDS011;2994;51.220;4.412;2022-07-11T07:44:14;4.97;;;4.37;;
5937;SDS011;2994;51.220;4.412;2022-07-11T07:46:39;4.70;;;4.13;;
5937;SDS011;2994;51.220;4.412;2022-07-11T07:49:05;6.07;;;5.47;;
5937;SDS011;2994;51.220;4.412;2022-07-11T07:51:30;4.97;;;4.57;;
5937;SDS011;2994;51.220;4.412;2022-07-11T07:53:56;5.53;;;4.53;;
5937;SDS011;2994;51.220;4.412;2022-07-11T07:56:21;5.27;;;4.37;;
5937;SDS011;2994;51.220;4.412;2022-07-11T07:58:47;3.90;;;3.60;;
5937;SDS011;2994;51.220;4.412;2022-07-11T08:01:12;3.63;;;3.27;;
5937;SDS011;2994;51.220;4.412;2022-07-11T08:03:56;5.20;;;4.10;;
5937;SDS011;2994;51.220;4.412;2022-07-11T08:06:22;4.43;;;3.77;;
5937;SDS011;2994;51.220;4.412;2022-07-11T08:08:48;4.77;;;3.50;;
5937;SDS011;2994;51.220;4.412;2022-07-11T08:11:14;4.73;;;4.27;;
5937;SDS011;2994;51.220;4.412;2022-07-11T08:13:41;7.07;;;4.40;;
5937;SDS011;2994;51.220;4.412;2022-07-11T08:16:07;4.33;;;3.90;;
5937;SDS011;2994;51.220;4.412;2022-07-11T08:18:33;4.80;;;4.13;;
5937;SDS011;2994;51.220;4.412;2022-07-11T08:20:59;4.47;;;3.27;;
5937;SDS011;2994;51.220;4.412;2022-07-11T08:23:24;5.20;;;4.07;;
5937;SDS011;2994;51.220;4.412;2022-07-11T08:25:50;4.90;;;4.33;;
5937;SDS011;2994;51.220;4.412;2022-07-11T08:28:16;5.67;;;5.20;;
5937;SDS011;2994;51.220;4.412;2022-07-11T08:30:42;8.43;;;5.97;;
5937;SDS011;2994;51.220;4.412;2022-07-11T08:33:07;10.63;;;6.30;;
5937;SDS011;2994;51.220;4.412;2022-07-11T08:35:33;7.00;;;4.80;;
5937;SDS011;2994;51.220;4.412;2022-07-11T08:37:59;5.50;;;4.93;;
5937;SDS011;2994;51.220;4.412;2022-07-11T08:40:24;6.07;;;5.53;;
5937;SDS011;2994;51.220;4.412;2022-07-11T08:42:50;6.13;;;4.93;;
5937;SDS011;2994;51.220;4.412;2022-07-11T08:45:16;6.27;;;5.17;;
5937;SDS011;2994;51.220;4.412;2022-07-11T08:47:45;5.80;;;5.17;;
5937;SDS011;2994;51.220;4.412;2022-07-11T08:50:11;5.10;;;4.60;;
5937;SDS011;2994;51.220;4.412;2022-07-11T08:52:38;7.30;;;5.33;;
5937;SDS011;2994;51.220;4.412;2022-07-11T08:55:07;6.93;;;5.97;;
5937;SDS011;2994;51.220;4.412;2022-07-11T08:57:36;5.97;;;5.43;;
5937;SDS011;2994;51.220;4.412;2022-07-11T09:00:03;6.23;;;5.60;;
5937;SDS011;2994;51.220;4.412;2022-07-11T09:02:32;5.83;;;5.23;;
5937;SDS011;2994;51.220;4.412;2022-07-11T09:04:58;5.57;;;5.00;;
5937;SDS011;2994;51.220;4.412;2022-07-11T09:07:30;4.43;;;4.13;;
5937;SDS011;2994;51.220;4.412;2022-07-11T09:09:56;8.17;;;5.10;;
5937;SDS011;2994;51.220;4.412;2022-07-11T09:12:22;6.10;;;5.50;;
5937;SDS011;2994;51.220;4.412;2022-07-11T09:14:48;6.40;;;5.10;;
5937;SDS011;2994;51.220;4.412;2022-07-11T09:17:15;5.20;;;4.70;;
5937;SDS011;2994;51.220;4.412;2022-07-11T09:19:49;7.60;;;5.20;;
5937;SDS011;2994;51.220;4.412;2022-07-11T09:22:16;8.10;;;5.27;;
5937;SDS011;2994;51.220;4.412;2022-07-11T09:25:01;5.40;;;4.90;;
5937;SDS011;2994;51.220;4.412;2022-07-11T09:27:48;6.50;;;5.53;;
5937;SDS011;2994;51.220;4.412;2022-07-11T09:30:16;6.00;;;5.27;;
5937;SDS011;2994;51.220;4.412;2022-07-11T09:33:04;6.47;;;5.20;;
5937;SDS011;2994;51.220;4.412;2022-07-11T09:35:30;5.30;;;4.53;;
5937;SDS011;2994;51.220;4.412;2022-07-11T09:38:07;5.60;;;5.10;;
5937;SDS011;2994;51.220;4.412;2022-07-11T09:40:33;5.33;;;4.30;;
5937;SDS011;2994;51.220;4.412;2022-07-11T09:42:59;7.23;;;4.83;;
5937;SDS011;2994;51.220;4.412;2022-07-11T09:45:27;5.40;;;4.90;;
5937;SDS011;2994;51.220;4.412;2022-07-11T09:47:57;6.87;;;5.43;;
5937;SDS011;2994;51.220;4.412;2022-07-11T09:50:26;5.90;;;5.30;;
5937;SDS011;2994;51.220;4.412;2022-07-11T09:53:04;4.87;;;4.47;;
5937;SDS011;2994;51.220;4.412;2022-07-11T09:55:32;4.67;;;4.27;;
5937;SDS011;2994;51.220;4.412;2022-07-11T09:58:04;5.80;;;5.30;;
5937;SDS011;2994;51.220;4.412;2022-07-11T10:00:35;6.43;;;5.43;;
5937;SDS011;2994;51.220;4.412;2022-07-11T10:03:02;5.57;;;5.07;;
5937;SDS011;2994;51.220;4.412;2022-07-11T10:05:29;6.17;;;4.87;;
5937;SDS011;2994;51.220;4.412;2022-07-11T10:07:56;5.23;;;4.20;;
5937;SDS011;2994;51.220;4.412;2022-07-11T10:10:22;4.17;;;3.87;;
5937;SDS011;2994;51.220;4.412;2022-07-11T10:12:50;9.10;;;5.03;;
5937;SDS011;2994;51.220;4.412;2022-07-11T10:15:16;4.97;;;4.27;;
5937;SDS011;2994;51.220;4.412;2022-07-11T10:28:30;4.60;;;4.20;;
5937;SDS011;2994;51.220;4.412;2022-07-11T10:31:18;3.80;;;3.50;;
5937;SDS011;2994;51.220;4.412;2022-07-11T10:34:01;4.90;;;3.83;;
5937;SDS011;2994;51.220;4.412;2022-07-11T10:36:28;5.67;;;4.10;;
5937;SDS011;2994;51.220;4.412;2022-07-11T10:39:15;4.47;;;4.07;;
5937;SDS011;2994;51.220;4.412;2022-07-11T10:41:41;4.43;;;4.03;;
5937;SDS011;2994;51.220;4.412;2022-07-11T10:44:06;6.03;;;4.20;;
5937;SDS011;2994;51.220;4.412;2022-07-11T10:46:32;3.63;;;3.20;;
5937;SDS011;2994;51.220;4.412;2022-07-11T10:59:22;4.67;;;4.20;;
5937;SDS011;2994;51.220;4.412;2022-07-11T11:02:00;4.60;;;3.83;;
5937;SDS011;2994;51.220;4.412;2022-07-11T11:04:42;3.83;;;3.53;;
5937;SDS011;2994;51.220;4.412;2022-07-11T11:15:31;5.83;;;4.43;;
5937;SDS011;2994;51.220;4.412;2022-07-11T11:17:58;4.40;;;4.00;;
5937;SDS011;2994;51.220;4.412;2022-07-11T11:23:33;4.57;;;3.40;;
5937;SDS011;2994;51.220;4.412;2022-07-11T11:26:10;3.60;;;3.30;;
5937;SDS011;2994;51.220;4.412;2022-07-11T11:28:36;4.23;;;3.83;;
5937;SDS011;2994;51.220;4.412;2022-07-11T11:31:04;4.70;;;3.23;;
5937;SDS011;2994;51.220;4.412;2022-07-11T11:33:35;5.50;;;4.83;;
5937;SDS011;2994;51.220;4.412;2022-07-11T11:38:39;4.17;;;3.87;;
5937;SDS011;2994;51.220;4.412;2022-07-11T11:41:05;4.87;;;4.47;;
5937;SDS011;2994;51.220;4.412;2022-07-11T11:43:32;4.37;;;3.97;;
5937;SDS011;2994;51.220;4.412;2022-07-11T11:45:58;5.07;;;4.03;;
5937;SDS011;2994;51.220;4.412;2022-07-11T11:50:59;4.73;;;4.20;;
5937;SDS011;2994;51.220;4.412;2022-07-11T11:53:34;4.37;;;3.40;;
5937;SDS011;2994;51.220;4.412;2022-07-11T11:56:13;4.30;;;3.90;;
5937;SDS011;2994;51.220;4.412;2022-07-11T11:58:46;3.60;;;3.30;;
5937;SDS011;2994;51.220;4.412;2022-07-11T12:01:13;4.67;;;3.43;;
5937;SDS011;2994;51.220;4.412;2022-07-11T12:04:01;5.10;;;3.80;;
5937;SDS011;2994;51.220;4.412;2022-07-11T12:06:30;3.97;;;3.60;;
5937;SDS011;2994;51.220;4.412;2022-07-11T12:09:04;3.10;;;2.90;;
5937;SDS011;2994;51.220;4.412;2022-07-11T12:11:31;3.90;;;3.10;;
5937;SDS011;2994;51.220;4.412;2022-07-11T12:13:58;3.37;;;2.60;;
5937;SDS011;2994;51.220;4.412;2022-07-11T12:16:25;3.43;;;3.10;;
5937;SDS011;2994;51.220;4.412;2022-07-11T12:21:35;3.67;;;3.17;;
5937;SDS011;2994;51.220;4.412;2022-07-11T12:24:02;2.87;;;2.67;;
5937;SDS011;2994;51.220;4.412;2022-07-11T12:26:30;3.10;;;2.90;;
5937;SDS011;2994;51.220;4.412;2022-07-11T12:29:02;3.63;;;3.23;;
5937;SDS011;2994;51.220;4.412;2022-07-11T12:32:16;3.13;;;2.63;;
5937;SDS011;2994;51.220;4.412;2022-07-11T12:37:05;4.30;;;3.33;;
5937;SDS011;2994;51.220;4.412;2022-07-11T12:39:32;3.30;;;3.00;;
5937;SDS011;2994;51.220;4.412;2022-07-11T12:41:59;2.80;;;2.60;;
5937;SDS011;2994;51.220;4.412;2022-07-11T12:44:27;2.60;;;2.40;;
5937;SDS011;2994;51.220;4.412;2022-07-11T12:47:12;3.00;;;2.23;;
5937;SDS011;2994;51.220;4.412;2022-07-11T12:49:39;2.70;;;2.50;;
5937;SDS011;2994;51.220;4.412;2022-07-11T12:52:09;3.90;;;3.20;;
5937;SDS011;2994;51.220;4.412;2022-07-11T12:54:35;3.00;;;2.70;;
5937;SDS011;2994;51.220;4.412;2022-07-11T12:57:01;3.20;;;2.40;;
5937;SDS011;2994;51.220;4.412;2022-07-11T12:59:27;3.10;;;2.80;;
5937;SDS011;2994;51.220;4.412;2022-07-11T13:01:57;4.37;;;3.40;;
5937;SDS011;2994;51.220;4.412;2022-07-11T13:10:08;4.93;;;2.20;;
5937;SDS011;2994;51.220;4.412;2022-07-11T13:12:41;2.80;;;2.60;;
5937;SDS011;2994;51.220;4.412;2022-07-11T13:15:09;4.00;;;2.57;;
5937;SDS011;2994;51.220;4.412;2022-07-11T13:17:45;2.87;;;1.93;;
5937;SDS011;2994;51.220;4.412;2022-07-11T13:20:12;2.23;;;2.13;;
5937;SDS011;2994;51.220;4.412;2022-07-11T13:22:43;2.50;;;2.30;;
5937;SDS011;2994;51.220;4.412;2022-07-11T13:25:09;2.13;;;1.93;;
5937;SDS011;2994;51.220;4.412;2022-07-11T13:27:37;2.83;;;2.20;;
5937;SDS011;2994;51.220;4.412;2022-07-11T13:30:03;2.80;;;2.60;;
5937;SDS011;2994;51.220;4.412;2022-07-11T13:32:36;2.60;;;2.40;;
5937;SDS011;2994;51.220;4.412;2022-07-11T13:35:04;3.57;;;2.30;;
5937;SDS011;2994;51.220;4.412;2022-07-11T13:37:30;2.97;;;2.00;;
5937;SDS011;2994;51.220;4.412;2022-07-11T13:39:56;2.93;;;2.73;;
5937;SDS011;2994;51.220;4.412;2022-07-11T13:42:21;2.33;;;2.23;;
5937;SDS011;2994;51.220;4.412;2022-07-11T13:44:47;3.17;;;2.33;;
5937;SDS011;2994;51.220;4.412;2022-07-11T13:47:12;3.37;;;2.23;;
5937;SDS011;2994;51.220;4.412;2022-07-11T13:49:38;3.97;;;2.50;;
5937;SDS011;2994;51.220;4.412;2022-07-11T13:52:04;2.53;;;2.30;;
5937;SDS011;2994;51.220;4.412;2022-07-11T13:54:30;2.50;;;2.30;;
5937;SDS011;2994;51.220;4.412;2022-07-11T13:56:55;2.43;;;2.23;;
5937;SDS011;2994;51.220;4.412;2022-07-11T13:59:21;2.80;;;2.60;;
5937;SDS011;2994;51.220;4.412;2022-07-11T14:01:46;2.63;;;2.13;;
5937;SDS011;2994;51.220;4.412;2022-07-11T14:04:12;2.40;;;2.17;;
5937;SDS011;2994;51.220;4.412;2022-07-11T14:06:38;2.53;;;2.33;;
5937;SDS011;2994;51.220;4.412;2022-07-11T14:09:03;2.97;;;2.47;;
5937;SDS011;2994;51.220;4.412;2022-07-11T14:11:29;2.93;;;2.20;;
5937;SDS011;2994;51.220;4.412;2022-07-11T14:13:54;2.23;;;2.03;;
5937;SDS011;2994;51.220;4.412;2022-07-11T14:16:21;2.07;;;1.97;;
5937;SDS011;2994;51.220;4.412;2022-07-11T14:18:46;2.70;;;2.50;;
5937;SDS011;2994;51.220;4.412;2022-07-11T14:21:12;2.20;;;2.00;;
5937;SDS011;2994;51.220;4.412;2022-07-11T14:23:37;2.73;;;2.53;;
5937;SDS011;2994;51.220;4.412;2022-07-11T14:26:03;3.37;;;2.37;;
5937;SDS011;2994;51.220;4.412;2022-07-11T14:28:31;2.30;;;2.13;;
5937;SDS011;2994;51.220;4.412;2022-07-11T14:30:57;4.13;;;1.80;;
5937;SDS011;2994;51.220;4.412;2022-07-11T14:33:24;1.60;;;1.50;;
5937;SDS011;2994;51.220;4.412;2022-07-11T14:35:49;2.10;;;1.83;;
5937;SDS011;2994;51.220;4.412;2022-07-11T14:38:15;1.80;;;1.63;;
5937;SDS011;2994;51.220;4.412;2022-07-11T14:40:40;1.90;;;1.80;;
5937;SDS011;2994;51.220;4.412;2022-07-11T14:43:06;3.57;;;2.00;;
5937;SDS011;2994;51.220;4.412;2022-07-11T14:45:31;3.50;;;1.70;;
5937;SDS011;2994;51.220;4.412;2022-07-11T14:47:57;2.60;;;1.70;;
5937;SDS011;2994;51.220;4.412;2022-07-11T14:50:22;1.63;;;1.43;;
5937;SDS011;2994;51.220;4.412;2022-07-11T14:52:48;2.03;;;1.93;;
5937;SDS011;2994;51.220;4.412;2022-07-11T14:55:13;2.50;;;1.63;;
5937;SDS011;2994;51.220;4.412;2022-07-11T14:57:39;1.80;;;1.70;;
5937;SDS011;2994;51.220;4.412;2022-07-11T15:00:05;1.93;;;1.73;;
5937;SDS011;2994;51.220;4.412;2022-07-11T15:02:31;2.57;;;1.87;;
5937;SDS011;2994;51.220;4.412;2022-07-11T15:05:15;2.27;;;2.07;;
5937;SDS011;2994;51.220;4.412;2022-07-11T15:07:41;2.40;;;2.20;;
5937;SDS011;2994;51.220;4.412;2022-07-11T15:10:25;2.03;;;1.33;;
5937;SDS011;2994;51.220;4.412;2022-07-11T15:13:09;2.40;;;1.87;;
5937;SDS011;2994;51.220;4.412;2022-07-11T15:15:34;2.20;;;1.53;;
5937;SDS011;2994;51.220;4.412;2022-07-11T15:17:59;2.30;;;1.63;;
5937;SDS011;2994;51.220;4.412;2022-07-11T15:20:25;3.17;;;1.87;;
5937;SDS011;2994;51.220;4.412;2022-07-11T15:22:50;1.80;;;1.70;;
5937;SDS011;2994;51.220;4.412;2022-07-11T15:25:16;1.97;;;1.37;;
5937;SDS011;2994;51.220;4.412;2022-07-11T15:27:41;1.70;;;1.60;;
5937;SDS011;2994;51.220;4.412;2022-07-11T15:30:07;1.37;;;1.20;;
5937;SDS011;2994;51.220;4.412;2022-07-11T15:32:33;1.90;;;1.73;;
5937;SDS011;2994;51.220;4.412;2022-07-11T15:35:00;1.40;;;1.30;;
5937;SDS011;2994;51.220;4.412;2022-07-11T15:37:26;1.40;;;1.30;;
5937;SDS011;2994;51.220;4.412;2022-07-11T15:39:51;2.10;;;1.77;;
5937;SDS011;2994;51.220;4.412;2022-07-11T15:42:16;1.87;;;1.77;;
5937;SDS011;2994;51.220;4.412;2022-07-11T15:44:42;1.93;;;1.73;;
5937;SDS011;2994;51.220;4.412;2022-07-11T15:47:07;2.70;;;1.50;;
5937;SDS011;2994;51.220;4.412;2022-07-11T15:49:33;1.67;;;1.57;;
5937;SDS011;2994;51.220;4.412;2022-07-11T15:51:59;1.73;;;1.57;;
5937;SDS011;2994;51.220;4.412;2022-07-11T15:54:24;1.93;;;1.83;;